M I D A S
Marine Information and Data Acquisition System
Tripno 1448 of the Zeeleeuw from 2008-03-31 08:09:42 to 2008-03-31 13:50:21
Back to CruiseResearch ActivitiesStationsMapUnderway DataData graphs

EquipmentUnitsComment
TimeDGPSUTC
LatitudeDGPSDM.mWGS84
LongitudeDGPSDM.mWGS84
HeadingGyrodeg 
SOGDGPSknotsSpeed over ground
COGDGPSdegCourse over ground
DepthEcho soundermeters200 kHz
Missing or incorrect values are displayed as -999
Navigation data collected by the RV Zeeleeuw from 2008-03-31 08:05:06 to 2008-03-31 14:01:52
                                                                                    Next 1000 lines
Time Latitude Longitude Heading SOG COG Depth
2008-03-31 08:05:16 51°13.664 2°55.953 119.8 0.1 199 8.3
2008-03-31 08:05:21 51°13.664 2°55.954 118.3 0.1 195 8.3
2008-03-31 08:05:26 51°13.664 2°55.954 117 0.1 177 -999
2008-03-31 08:05:31 51°13.664 2°55.953 116.1 -999 278 8.4
2008-03-31 08:05:36 51°13.664 2°55.953 115.5 0.3 302 8.3
2008-03-31 08:05:41 51°13.664 2°55.952 115.3 0.6 302 8.4
2008-03-31 08:05:46 51°13.665 2°55.95 115.1 1 300 8.3
2008-03-31 08:05:51 51°13.667 2°55.947 114.8 1.5 300 8.3
2008-03-31 08:05:56 51°13.668 2°55.943 114.7 1.9 300 8.3
2008-03-31 08:06:01 51°13.67 2°55.939 114.6 2.4 300 8.3
2008-03-31 08:06:06 51°13.672 2°55.934 114.6 2.8 300 -999
2008-03-31 08:06:11 51°13.674 2°55.928 114.6 3.1 299 -999
2008-03-31 08:06:16 51°13.676 2°55.921 113.9 3.5 297 -999
2008-03-31 08:06:21 51°13.678 2°55.913 112.9 3.8 296 -999
2008-03-31 08:06:26 51°13.68 2°55.905 111.7 4.1 294 -999
2008-03-31 08:06:31 51°13.683 2°55.896 110.2 4.3 293 -999
2008-03-31 08:06:36 51°13.685 2°55.887 109 4.4 291 -999
2008-03-31 08:06:41 51°13.687 2°55.878 108 4.5 290 -999
2008-03-31 08:06:46 51°13.689 2°55.868 106.7 4.4 288 -999
2008-03-31 08:06:51 51°13.691 2°55.859 105.3 4.3 288 -999
2008-03-31 08:06:56 51°13.693 2°55.85 103.9 4.2 287 -999
2008-03-31 08:07:01 51°13.695 2°55.842 102.7 4.1 287 -999
2008-03-31 08:07:06 51°13.696 2°55.833 101.5 4 286 -999
2008-03-31 08:07:11 51°13.698 2°55.825 100.3 3.9 285 -999
2008-03-31 08:07:16 51°13.699 2°55.817 98.9 3.7 284 -999
2008-03-31 08:07:21 51°13.7 2°55.809 97.3 3.5 284 -999
2008-03-31 08:07:26 51°13.701 2°55.802 96.1 3.4 282 -999
2008-03-31 08:07:31 51°13.702 2°55.795 95.1 3.3 282 -999
2008-03-31 08:07:36 51°13.703 2°55.788 93.8 3.1 281 -999
2008-03-31 08:07:41 51°13.703 2°55.782 92.7 3 281 -999
2008-03-31 08:07:46 51°13.704 2°55.776 91.6 2.8 280 -999
2008-03-31 08:07:51 51°13.705 2°55.77 90.6 2.7 279 -999
2008-03-31 08:07:56 51°13.705 2°55.764 89.6 2.6 278 14.8
2008-03-31 08:08:01 51°13.706 2°55.758 88.5 2.5 279 15.3
2008-03-31 08:08:06 51°13.706 2°55.753 87.7 2.4 277 -999
2008-03-31 08:08:11 51°13.707 2°55.748 86 2.3 278 -999
2008-03-31 08:08:16 51°13.707 2°55.744 84.8 2.1 277 -999
2008-03-31 08:08:21 51°13.707 2°55.739 83.2 2 277 15.3
2008-03-31 08:08:26 51°13.708 2°55.735 82.4 1.9 278 14.9
2008-03-31 08:08:31 51°13.708 2°55.731 81.2 1.7 278 14.8
2008-03-31 08:08:36 51°13.708 2°55.728 79.7 1.6 280 14.1
2008-03-31 08:08:41 51°13.709 2°55.725 78.4 1.2 284 14.2
2008-03-31 08:08:46 51°13.709 2°55.723 76.9 0.9 292 14.1
2008-03-31 08:08:51 51°13.71 2°55.722 74.7 0.7 309 14
2008-03-31 08:08:56 51°13.711 2°55.721 71.5 0.6 329 13.9
2008-03-31 08:09:01 51°13.712 2°55.721 67.8 0.6 351 13.8
2008-03-31 08:09:06 51°13.713 2°55.722 63.6 0.7 10 13.9
2008-03-31 08:09:11 51°13.714 2°55.722 59 0.9 16 14.1
2008-03-31 08:09:16 51°13.715 2°55.723 54.1 1.1 22 14.1
2008-03-31 08:09:21 51°13.717 2°55.724 49.3 1 23 14.2
2008-03-31 08:09:26 51°13.719 2°55.726 44.2 0.8 23 14
2008-03-31 08:09:31 51°13.721 2°55.727 39.1 1.6 20 14
2008-03-31 08:09:36 51°13.723 2°55.728 34.1 1.3 20 14
2008-03-31 08:09:41 51°13.725 2°55.729 29.1 1.6 12 14
2008-03-31 08:09:46 51°13.727 2°55.73 24.7 1.4 13 14.1
2008-03-31 08:09:51 51°13.728 2°55.73 21.8 0.9 8 14.1
2008-03-31 08:09:56 51°13.729 2°55.73 18.8 0.4 357 -999
2008-03-31 08:10:01 51°13.729 2°55.729 15 0.2 259 -999
2008-03-31 08:10:06 51°13.728 2°55.729 12 0.6 206 13.8
2008-03-31 08:10:11 51°13.727 2°55.728 10.6 0.9 200 13.9
2008-03-31 08:10:16 51°13.725 2°55.727 9.5 1.3 195 14
2008-03-31 08:10:21 51°13.723 2°55.727 8.3 1.6 194 13.8
2008-03-31 08:10:24 51°13.722 2°55.726 6.9 0.9 194 -999
2008-03-31 08:10:24 51°13.722 2°55.726 5.9 0.1 14 -999
2008-03-31 08:10:24 51°13.722 2°55.726 5.6 -999 14 -999
2008-03-31 08:10:24 51°13.722 2°55.726 4.9 -999 194 -999
2008-03-31 08:10:46 51°13.715 2°55.722 3.2 0.1 197 -999
2008-03-31 08:10:51 51°13.715 2°55.722 0.9 0.3 233 -999
2008-03-31 08:10:56 51°13.715 2°55.722 358.5 0.4 322 -999
2008-03-31 08:11:01 51°13.716 2°55.721 354.7 0.8 339 -999
2008-03-31 08:11:06 51°13.718 2°55.72 349 1.2 341 -999
2008-03-31 08:11:11 51°13.72 2°55.719 345.4 1.5 342 -999
2008-03-31 08:11:16 51°13.722 2°55.718 341.8 1.6 342 -999
2008-03-31 08:11:21 51°13.724 2°55.717 339.4 1.8 342 -999
2008-03-31 08:11:26 51°13.727 2°55.716 337.9 1.9 339 -999
2008-03-31 08:11:31 51°13.73 2°55.714 336.7 2 340 -999
2008-03-31 08:11:36 51°13.732 2°55.712 335.9 2.3 337 -999
2008-03-31 08:11:41 51°13.736 2°55.71 335.2 2.5 337 12.6
2008-03-31 08:11:46 51°13.739 2°55.707 334.8 2.7 334 12.5
2008-03-31 08:11:51 51°13.743 2°55.704 334.5 3 334 13
2008-03-31 08:11:56 51°13.747 2°55.701 334.2 3.2 333 12.5
2008-03-31 08:12:01 51°13.751 2°55.698 334.2 3.3 334 12.5
2008-03-31 08:12:06 51°13.755 2°55.694 334.3 3.6 332 12.5
2008-03-31 08:12:10 51°13.759 2°55.691 334.5 3.9 333 12.4
2008-03-31 08:12:15 51°13.764 2°55.687 334.5 4.1 333 12.4
2008-03-31 08:12:20 51°13.77 2°55.682 334.5 4.4 334 12.2
2008-03-31 08:12:26 51°13.777 2°55.677 334.5 4.6 334 -999
2008-03-31 08:12:31 51°13.783 2°55.672 335.1 4.8 334 -999
2008-03-31 08:12:36 51°13.789 2°55.668 335.3 4.9 334 -999
2008-03-31 08:12:41 51°13.795 2°55.663 335.2 5 334 -999
2008-03-31 08:12:46 51°13.801 2°55.658 335.2 5.1 334 11.9
2008-03-31 08:12:51 51°13.808 2°55.653 335.2 5.2 335 -999
2008-03-31 08:12:56 51°13.815 2°55.648 335.3 5.3 335 -999
2008-03-31 08:13:01 51°13.821 2°55.643 335.5 5.4 335 -999
2008-03-31 08:13:06 51°13.828 2°55.638 335.9 5.5 335 -999
2008-03-31 08:13:11 51°13.835 2°55.632 336.1 5.5 336 -999
2008-03-31 08:13:16 51°13.842 2°55.627 336.2 5.5 335 11.8
2008-03-31 08:13:21 51°13.849 2°55.622 336.2 5.4 336 -999
2008-03-31 08:13:26 51°13.856 2°55.617 336.2 5.3 335 12.1
2008-03-31 08:13:31 51°13.862 2°55.613 336 5.2 336 -999
2008-03-31 08:13:36 51°13.869 2°55.608 336 5.1 336 -999
2008-03-31 08:13:41 51°13.875 2°55.603 336 5.1 336 -999
2008-03-31 08:13:46 51°13.881 2°55.599 335.9 5 335 -999
2008-03-31 08:13:51 51°13.888 2°55.594 335.7 5 336 -999
2008-03-31 08:13:56 51°13.894 2°55.59 335.7 4.9 336 -999
2008-03-31 08:14:01 51°13.9 2°55.585 335.7 4.9 335 -999
2008-03-31 08:14:06 51°13.906 2°55.581 335.7 4.9 336 -999
2008-03-31 08:14:11 51°13.913 2°55.576 335.7 4.8 336 -999
2008-03-31 08:14:15 51°13.917 2°55.573 335.8 3.9 336 -999
2008-03-31 08:14:21 51°13.924 2°55.569 335.8 3.6 336 -999
2008-03-31 08:14:26 51°13.93 2°55.565 335.8 4.7 336 -999
2008-03-31 08:14:31 51°13.936 2°55.56 335.8 4.7 336 -999
2008-03-31 08:14:36 51°13.942 2°55.556 335.6 4.6 336 -999
2008-03-31 08:14:41 51°13.947 2°55.552 335.6 4.7 336 -999
2008-03-31 08:14:46 51°13.953 2°55.548 335.7 4.6 336 -999
2008-03-31 08:14:51 51°13.959 2°55.544 335.6 4.6 335 -999
2008-03-31 08:14:56 51°13.965 2°55.539 335.3 4.6 335 -999
2008-03-31 08:15:01 51°13.97 2°55.535 335 4.6 335 -999
2008-03-31 08:15:06 51°13.976 2°55.531 334.8 4.6 335 -999
2008-03-31 08:15:11 51°13.982 2°55.527 334.8 4.6 335 -999
2008-03-31 08:15:16 51°13.987 2°55.522 334.8 4.5 334 -999
2008-03-31 08:15:21 51°13.993 2°55.518 334.5 4.5 334 -999
2008-03-31 08:15:26 51°13.999 2°55.514 334.3 4.5 334 -999
2008-03-31 08:15:31 51°14.004 2°55.509 334.2 4.5 334 -999
2008-03-31 08:15:36 51°14.01 2°55.505 334.2 4.5 335 -999
2008-03-31 08:15:41 51°14.016 2°55.501 334.5 4.5 335 -999
2008-03-31 08:15:46 51°14.021 2°55.497 334.7 4.6 335 -999
2008-03-31 08:15:51 51°14.027 2°55.492 334.7 4.6 334 -999
2008-03-31 08:15:56 51°14.033 2°55.488 334.3 4.5 335 -999
2008-03-31 08:16:01 51°14.038 2°55.484 334.2 4.5 335 -999
2008-03-31 08:16:06 51°14.044 2°55.48 334.2 4.5 335 12.5
2008-03-31 08:16:11 51°14.049 2°55.476 334.2 4.5 335 -999
2008-03-31 08:16:16 51°14.055 2°55.472 334.3 4.5 335 -999
2008-03-31 08:16:21 51°14.061 2°55.467 334.4 4.5 334 12.3
2008-03-31 08:16:26 51°14.066 2°55.463 334.4 4.5 335 -999
2008-03-31 08:16:31 51°14.072 2°55.458 334.2 4.5 333 12.6
2008-03-31 08:16:36 51°14.078 2°55.454 333.8 4.5 334 -999
2008-03-31 08:16:41 51°14.083 2°55.449 333.4 4.5 333 12.4
2008-03-31 08:16:46 51°14.089 2°55.445 333.2 4.5 333 -999
2008-03-31 08:16:51 51°14.095 2°55.44 333.1 4.5 333 12.6
2008-03-31 08:16:56 51°14.1 2°55.435 333.1 4.5 333 12.6
2008-03-31 08:17:01 51°14.106 2°55.431 333.1 4.5 333 -999
2008-03-31 08:17:06 51°14.111 2°55.427 333.1 4.6 333 12.6
2008-03-31 08:17:11 51°14.117 2°55.422 333 4.6 333 -999
2008-03-31 08:17:16 51°14.123 2°55.417 332.8 4.7 333 12.6
2008-03-31 08:17:21 51°14.129 2°55.412 332.6 4.9 332 12.8
2008-03-31 08:17:26 51°14.135 2°55.407 332.3 5.1 332 12.8
2008-03-31 08:17:30 51°14.14 2°55.403 331.7 5.2 331 12.9
2008-03-31 08:17:35 51°14.147 2°55.397 331.1 5.4 330 13
2008-03-31 08:17:40 51°14.153 2°55.39 330.3 5.4 329 -999
2008-03-31 08:17:46 51°14.161 2°55.383 329.4 5.5 329 -999
2008-03-31 08:17:51 51°14.168 2°55.376 328.6 5.6 328 -999
2008-03-31 08:17:56 51°14.175 2°55.369 327.7 5.6 327 -999
2008-03-31 08:18:01 51°14.181 2°55.362 326.7 5.7 326 -999
2008-03-31 08:18:06 51°14.188 2°55.355 325.6 5.8 325 -999
2008-03-31 08:18:11 51°14.194 2°55.347 324.4 5.8 324 12.9
2008-03-31 08:18:16 51°14.201 2°55.339 323.6 5.8 323 -999
2008-03-31 08:18:21 51°14.207 2°55.331 322.9 5.8 321 12.9
2008-03-31 08:18:26 51°14.213 2°55.323 321.9 5.8 321 13
2008-03-31 08:18:31 51°14.219 2°55.315 321.1 5.8 319 12.9
2008-03-31 08:18:36 51°14.225 2°55.307 320 5.8 319 13
2008-03-31 08:18:41 51°14.231 2°55.298 319.1 5.8 318 12.9
2008-03-31 08:18:46 51°14.237 2°55.29 318.1 5.8 317 12.6
2008-03-31 08:18:50 51°14.242 2°55.283 317.6 5.8 317 12.6
2008-03-31 08:18:55 51°14.248 2°55.274 317 5.7 316 12.5
2008-03-31 08:19:00 51°14.253 2°55.265 316 5.7 315 12.1
2008-03-31 08:19:05 51°14.259 2°55.256 315.1 5.8 314 12.1
2008-03-31 08:19:10 51°14.264 2°55.247 314.4 5.7 314 12.1
2008-03-31 08:19:14 51°14.269 2°55.239 313.8 5.7 313 12
2008-03-31 08:19:19 51°14.274 2°55.229 313.5 5.8 312 12
2008-03-31 08:19:24 51°14.279 2°55.219 312.7 5.9 312 12
2008-03-31 08:19:29 51°14.283 2°55.208 311.9 6 311 11.9
2008-03-31 08:19:34 51°14.289 2°55.197 310.9 6.4 309 11.7
2008-03-31 08:19:38 51°14.293 2°55.188 310.1 6.6 309 11.6
2008-03-31 08:19:44 51°14.3 2°55.174 309.6 6.8 309 11.5
2008-03-31 08:19:48 51°14.305 2°55.164 309.5 7 309 11.6
2008-03-31 08:19:53 51°14.312 2°55.152 309.8 7.2 309 11.8
2008-03-31 08:19:58 51°14.318 2°55.14 310.8 7.3 311 12.2
2008-03-31 08:20:03 51°14.326 2°55.127 312.3 7.7 312 12.4
2008-03-31 08:20:08 51°14.334 2°55.114 314.6 8.1 315 12.7
2008-03-31 08:20:13 51°14.342 2°55.101 316.9 8.5 317 12.6
2008-03-31 08:20:18 51°14.351 2°55.088 319.3 8.8 319 12.3
2008-03-31 08:20:23 51°14.361 2°55.075 320.8 9.1 320 12.4
2008-03-31 08:20:27 51°14.369 2°55.065 322.9 9.3 322 12.3
2008-03-31 08:20:33 51°14.382 2°55.05 324 9.6 323 12.2
2008-03-31 08:20:38 51°14.394 2°55.038 324.7 9.7 325 12.1
2008-03-31 08:20:43 51°14.405 2°55.027 326.9 9.8 328 12.1
2008-03-31 08:20:47 51°14.415 2°55.018 329.5 10 332 12.1
2008-03-31 08:20:53 51°14.431 2°55.007 333 10.3 336 12.1
2008-03-31 08:20:58 51°14.445 2°54.999 336.7 10.4 339 12.2
2008-03-31 08:21:03 51°14.459 2°54.992 339.6 10.7 342 12.1
2008-03-31 08:21:07 51°14.471 2°54.986 342.6 11 344 12.1
2008-03-31 08:21:13 51°14.489 2°54.981 346.3 11.1 351 11.9
2008-03-31 08:21:18 51°14.505 2°54.979 350.4 11.2 354 11.7
2008-03-31 08:21:23 51°14.52 2°54.979 356.4 11.4 359 11.7
2008-03-31 08:21:27 51°14.533 2°54.98 359.9 11.7 2 11.6
2008-03-31 08:21:33 51°14.553 2°54.981 2.1 12 3 11.6
2008-03-31 08:21:38 51°14.57 2°54.984 3.8 12.3 5 11.6
2008-03-31 08:21:43 51°14.588 2°54.987 5.7 12.4 6 11.6
2008-03-31 08:21:47 51°14.602 2°54.988 5.8 12.6 4 11.5
2008-03-31 08:21:53 51°14.623 2°54.992 5.7 12.8 6 11.5
2008-03-31 08:21:58 51°14.641 2°54.994 6.2 12.8 6 11.2
2008-03-31 08:22:03 51°14.659 2°54.998 6.5 12.9 6 11.3
2008-03-31 08:22:07 51°14.673 2°55.001 7.4 13 7 11.2
2008-03-31 08:22:13 51°14.694 2°55.005 7.7 13 7 11.1
2008-03-31 08:22:18 51°14.712 2°55.01 8.5 13 9 11.1
2008-03-31 08:22:23 51°14.73 2°55.014 9.8 13 8 11
2008-03-31 08:22:28 51°14.748 2°55.016 8.7 13 6 11.1
2008-03-31 08:22:33 51°14.766 2°55.017 6.2 13 3 11
2008-03-31 08:22:38 51°14.784 2°55.016 2.8 12.9 358 10.9
2008-03-31 08:22:42 51°14.798 2°55.013 358.3 12.8 353 10.8
2008-03-31 08:22:48 51°14.819 2°55.006 353.3 12.7 349 10.9
2008-03-31 08:22:53 51°14.836 2°54.998 348.5 12.7 344 10.7
2008-03-31 08:22:58 51°14.852 2°54.989 343.9 12.6 341 10.9
2008-03-31 08:23:03 51°14.869 2°54.978 338.9 12.6 337 10.8
2008-03-31 08:23:07 51°14.881 2°54.968 335.6 12.5 333 10.7
2008-03-31 08:23:13 51°14.899 2°54.951 330.3 12.4 328 10.8
2008-03-31 08:23:18 51°14.913 2°54.935 326.7 12.3 324 10.8
2008-03-31 08:23:22 51°14.923 2°54.921 321.2 12.4 320 10.8
2008-03-31 08:23:27 51°14.936 2°54.903 318.3 12.4 320 10.8
2008-03-31 08:23:33 51°14.952 2°54.882 317.8 12.5 321 10.8
2008-03-31 08:23:38 51°14.966 2°54.866 320.5 12.5 324 10.6
2008-03-31 08:23:43 51°14.98 2°54.849 321.5 12.6 322 10.7
2008-03-31 08:23:47 51°14.991 2°54.835 321.5 12.5 323 10.8
2008-03-31 08:23:53 51°15.007 2°54.814 321.4 12.5 321 10.7
2008-03-31 08:23:58 51°15.02 2°54.796 319.5 12.5 318 10.8
2008-03-31 08:24:03 51°15.032 2°54.776 316.2 12.4 314 10.3
2008-03-31 08:24:07 51°15.041 2°54.759 311.5 12.3 310 10.4
2008-03-31 08:24:13 51°15.052 2°54.733 307.4 12.2 306 10.4
2008-03-31 08:24:18 51°15.061 2°54.71 304.3 12.2 304 10.3
2008-03-31 08:24:23 51°15.07 2°54.687 301 12.2 301 10.1
2008-03-31 08:24:27 51°15.077 2°54.668 299.3 12.2 300 10.1
2008-03-31 08:24:33 51°15.087 2°54.64 297.9 12.2 299 10
2008-03-31 08:24:38 51°15.095 2°54.616 297.6 12.3 299 10
2008-03-31 08:24:43 51°15.103 2°54.592 297.4 12.3 299 10.2
2008-03-31 08:24:47 51°15.109 2°54.573 296.6 12.3 297 10.1
2008-03-31 08:24:53 51°15.118 2°54.543 295.7 12.3 295 10.1
2008-03-31 08:24:58 51°15.125 2°54.519 294.5 12.3 295 10.2
2008-03-31 08:25:02 51°15.131 2°54.499 294 12.3 295 10.2
2008-03-31 08:25:08 51°15.139 2°54.469 293.7 12.4 295 10.2
2008-03-31 08:25:13 51°15.146 2°54.444 293.5 12.4 294 10.3
2008-03-31 08:25:18 51°15.154 2°54.419 293.5 12.4 295 10.3
2008-03-31 08:25:23 51°15.161 2°54.394 293.8 12.5 295 10.4
2008-03-31 08:25:27 51°15.167 2°54.375 294.8 12.5 296 10.4
2008-03-31 08:25:33 51°15.176 2°54.345 294.9 12.4 295 10.4
2008-03-31 08:25:38 51°15.183 2°54.319 294.3 12.5 294 10.4
2008-03-31 08:25:43 51°15.189 2°54.294 292.9 12.5 293 10.5
2008-03-31 08:25:47 51°15.195 2°54.274 292.2 12.4 293 10.6
2008-03-31 08:25:53 51°15.202 2°54.243 291.8 12.4 292 10.6
2008-03-31 08:25:58 51°15.208 2°54.217 290.1 12.4 289 10.6
2008-03-31 08:26:03 51°15.213 2°54.191 288.8 12.5 289 10.7
2008-03-31 08:26:07 51°15.218 2°54.17 288.1 12.5 288 10.8
2008-03-31 08:26:13 51°15.225 2°54.139 288 12.5 290 10.8
2008-03-31 08:26:18 51°15.23 2°54.112 288 12.5 289 10.7
2008-03-31 08:26:23 51°15.236 2°54.086 287.9 12.5 288 11
2008-03-31 08:26:27 51°15.24 2°54.065 287.3 12.5 288 11.1
2008-03-31 08:26:33 51°15.247 2°54.034 287.5 12.5 290 11
2008-03-31 08:26:38 51°15.252 2°54.007 288.3 12.5 289 11.1
2008-03-31 08:26:43 51°15.258 2°53.981 288.2 12.5 290 11.1
2008-03-31 08:26:47 51°15.263 2°53.96 288.8 12.6 290 11.2
2008-03-31 08:26:53 51°15.27 2°53.929 288.8 12.6 290 11.2
2008-03-31 08:26:58 51°15.276 2°53.903 288.9 12.5 290 11.2
2008-03-31 08:27:03 51°15.282 2°53.877 289.3 12.5 290 11.2
2008-03-31 08:27:08 51°15.288 2°53.851 289.2 12.5 290 11.3
2008-03-31 08:27:13 51°15.294 2°53.825 289.2 12.5 290 11.3
2008-03-31 08:27:18 51°15.3 2°53.799 289.2 12.5 290 11.4
2008-03-31 08:27:23 51°15.306 2°53.773 288.8 12.5 290 11.4
2008-03-31 08:27:28 51°15.312 2°53.747 288.7 12.5 290 11.5
2008-03-31 08:27:33 51°15.317 2°53.721 288.6 12.4 288 11.5
2008-03-31 08:27:38 51°15.322 2°53.695 287.7 12.4 288 11.5
2008-03-31 08:27:43 51°15.325 2°53.668 283.9 12.3 281 11.7
2008-03-31 08:27:48 51°15.329 2°53.641 280.9 12.3 282 11.6
2008-03-31 08:27:53 51°15.331 2°53.614 279.3 12.3 279 11.6
2008-03-31 08:27:58 51°15.334 2°53.588 277.7 12.3 279 11.7
2008-03-31 08:28:02 51°15.335 2°53.566 276.9 12.3 277 11.8
2008-03-31 08:28:07 51°15.337 2°53.539 275.8 12.3 277 11.7
2008-03-31 08:28:13 51°15.34 2°53.507 275.3 12.3 276 11.8
2008-03-31 08:28:18 51°15.341 2°53.48 274.5 12.3 276 11.9
2008-03-31 08:28:23 51°15.343 2°53.453 274.3 12.3 276 12
2008-03-31 08:28:27 51°15.344 2°53.431 274.3 12.2 276 12
2008-03-31 08:28:33 51°15.347 2°53.399 274.6 12.3 276 12.1
2008-03-31 08:28:38 51°15.348 2°53.372 274.6 12.3 276 12.1
2008-03-31 08:28:43 51°15.351 2°53.345 274.8 12.3 277 12
2008-03-31 08:28:47 51°15.352 2°53.324 275 12.2 276 11.9
2008-03-31 08:28:53 51°15.354 2°53.292 275 12.2 277 12.2
2008-03-31 08:28:58 51°15.356 2°53.265 275 12.3 276 12.3
2008-03-31 08:29:03 51°15.358 2°53.238 275.1 12.3 277 12.3
2008-03-31 08:29:08 51°15.36 2°53.211 275.3 12.3 277 12.4
2008-03-31 08:29:13 51°15.362 2°53.184 275.4 12.3 277 12.1
2008-03-31 08:29:18 51°15.364 2°53.157 275.6 12.3 277 12
2008-03-31 08:29:23 51°15.366 2°53.13 275.4 12.3 277 12.2
2008-03-31 08:29:27 51°15.368 2°53.108 275.5 12.3 277 12
2008-03-31 08:29:33 51°15.37 2°53.076 275.8 12.3 277 12.1
2008-03-31 08:29:38 51°15.372 2°53.049 276.2 12.3 277 12.2
2008-03-31 08:29:42 51°15.374 2°53.027 276.3 12.3 277 12.3
2008-03-31 08:29:48 51°15.377 2°52.995 276.1 12.3 277 12.3
2008-03-31 08:29:53 51°15.378 2°52.968 276 12.3 277 12.3
2008-03-31 08:29:58 51°15.381 2°52.941 275.9 12.3 277 12.4
2008-03-31 08:30:03 51°15.383 2°52.914 276.1 12.3 277 12.4
2008-03-31 08:30:07 51°15.385 2°52.892 276.3 12.3 277 12.3
2008-03-31 08:30:13 51°15.387 2°52.86 276.2 12.3 277 12.4
2008-03-31 08:30:18 51°15.389 2°52.833 276.1 12.3 277 12.5
2008-03-31 08:30:23 51°15.392 2°52.806 276.1 12.3 277 12.6
2008-03-31 08:30:27 51°15.393 2°52.784 276.3 12.3 278 12.8
2008-03-31 08:30:33 51°15.396 2°52.752 276.4 12.3 278 12.9
2008-03-31 08:30:38 51°15.398 2°52.725 276.7 12.3 278 13
2008-03-31 08:30:43 51°15.4 2°52.698 276.4 12.4 277 12.8
2008-03-31 08:30:47 51°15.402 2°52.676 276.2 12.3 277 12.7
2008-03-31 08:30:53 51°15.405 2°52.643 276.1 12.3 277 12.8
2008-03-31 08:30:58 51°15.407 2°52.616 276.2 12.3 278 12.8
2008-03-31 08:31:03 51°15.409 2°52.589 276.6 12.3 278 12.8
2008-03-31 08:31:07 51°15.411 2°52.568 276.9 12.3 278 12.9
2008-03-31 08:31:13 51°15.414 2°52.535 276.9 12.4 278 12.8
2008-03-31 08:31:18 51°15.417 2°52.508 277.2 12.4 279 13
2008-03-31 08:31:23 51°15.419 2°52.481 277.5 12.3 278 13
2008-03-31 08:31:28 51°15.421 2°52.454 277.6 12.3 278 13
2008-03-31 08:31:33 51°15.424 2°52.427 277.1 12.3 278 13
2008-03-31 08:31:38 51°15.426 2°52.4 276.4 12.3 277 13
2008-03-31 08:31:42 51°15.428 2°52.378 276.8 12.3 278 13
2008-03-31 08:31:48 51°15.428 2°52.346 274.5 12.3 272 13.1
2008-03-31 08:31:53 51°15.43 2°52.319 272.7 12.3 275 13.1
2008-03-31 08:31:58 51°15.43 2°52.292 271.9 12.2 271 13.1
2008-03-31 08:32:03 51°15.431 2°52.265 270.7 12.3 272 13.2
2008-03-31 08:32:07 51°15.431 2°52.243 270.2 12.2 270 13.2
2008-03-31 08:32:13 51°15.431 2°52.21 269.3 12.3 271 13.3
2008-03-31 08:32:18 51°15.431 2°52.183 269.1 12.2 270 13.3
2008-03-31 08:32:23 51°15.431 2°52.156 268.8 12.3 270 13.3
2008-03-31 08:32:27 51°15.431 2°52.135 268.8 12.2 270 13.4
2008-03-31 08:32:33 51°15.431 2°52.102 269.2 12.3 270 13.4
2008-03-31 08:32:38 51°15.431 2°52.075 269.3 12.2 271 13.4
2008-03-31 08:32:43 51°15.431 2°52.048 269.6 12.2 271 13.4
2008-03-31 08:32:47 51°15.432 2°52.026 269.9 12.3 271 13.5
2008-03-31 08:32:53 51°15.432 2°51.994 270.3 12.3 272 13.5
2008-03-31 08:32:58 51°15.433 2°51.966 270.7 12.3 272 13.5
2008-03-31 08:33:03 51°15.433 2°51.939 271 12.3 272 13.6
2008-03-31 08:33:07 51°15.434 2°51.918 271.3 12.3 273 13.6
2008-03-31 08:33:13 51°15.435 2°51.885 271.4 12.3 272 13.7
2008-03-31 08:33:18 51°15.436 2°51.858 271.3 12.3 272 13.6
2008-03-31 08:33:23 51°15.436 2°51.831 271.1 12.3 272 13.6
2008-03-31 08:33:28 51°15.436 2°51.804 270.3 12.3 271 13.7
2008-03-31 08:33:33 51°15.437 2°51.777 269.9 12.3 271 13.7
2008-03-31 08:33:38 51°15.438 2°51.75 271 12.3 273 13.7
2008-03-31 08:33:43 51°15.439 2°51.722 271.7 12.3 273 13.7
2008-03-31 08:33:48 51°15.44 2°51.695 272.8 12.3 275 13.8
2008-03-31 08:33:53 51°15.442 2°51.668 273.7 12.3 274 13.7
2008-03-31 08:33:58 51°15.444 2°51.641 274.2 12.3 276 13.8
2008-03-31 08:34:03 51°15.445 2°51.614 274.5 12.3 275 13.8
2008-03-31 08:34:07 51°15.446 2°51.592 274.7 12.3 276 13.8
2008-03-31 08:34:13 51°15.448 2°51.56 274.3 12.3 275 13.8
2008-03-31 08:34:18 51°15.45 2°51.533 274.3 12.3 276 13.9
2008-03-31 08:34:22 51°15.451 2°51.511 274.3 12.3 275 13.9
2008-03-31 08:34:27 51°15.452 2°51.484 274.3 12.3 275 14
2008-03-31 08:34:33 51°15.454 2°51.451 274.3 12.3 275 14
2008-03-31 08:34:38 51°15.455 2°51.424 273.5 12.2 274 13.9
2008-03-31 08:34:43 51°15.456 2°51.397 272.7 12.3 273 13.9
2008-03-31 08:34:47 51°15.457 2°51.375 272.5 12.2 273 14
2008-03-31 08:34:53 51°15.458 2°51.343 272.1 12.2 273 14
2008-03-31 08:34:58 51°15.459 2°51.316 272.1 12.3 273 14.1
2008-03-31 08:35:03 51°15.46 2°51.289 272 12.2 273 14.1
2008-03-31 08:35:07 51°15.461 2°51.267 272.1 12.2 273 14.1
2008-03-31 08:35:13 51°15.462 2°51.235 272.3 12.3 274 14.1
2008-03-31 08:35:18 51°15.463 2°51.208 272.6 12.3 274 14
2008-03-31 08:35:23 51°15.464 2°51.181 272.8 12.3 274 14.1
2008-03-31 08:35:28 51°15.465 2°51.153 273 12.3 274 14.1
2008-03-31 08:35:33 51°15.467 2°51.126 272.9 12.3 274 14.1
2008-03-31 08:35:38 51°15.468 2°51.099 272.8 12.3 276 14.2
2008-03-31 08:35:43 51°15.47 2°51.072 274.3 12.3 276 14.1
2008-03-31 08:35:47 51°15.471 2°51.051 275.2 12.3 277 14.1
2008-03-31 08:35:53 51°15.474 2°51.018 276.2 12.3 278 14.2
2008-03-31 08:35:58 51°15.477 2°50.991 277.2 12.4 279 14.2
2008-03-31 08:36:03 51°15.48 2°50.964 277.6 12.4 279 14.2
2008-03-31 08:36:07 51°15.482 2°50.943 278.1 12.4 279 14.2
2008-03-31 08:36:13 51°15.485 2°50.91 278.2 12.4 279 14.2
2008-03-31 08:36:18 51°15.487 2°50.883 277.6 12.4 278 14.3
2008-03-31 08:36:23 51°15.489 2°50.856 276.8 12.3 277 14.3
2008-03-31 08:36:28 51°15.492 2°50.829 276.4 12.3 277 14.3
2008-03-31 08:36:33 51°15.494 2°50.802 275.9 12.3 277 14.3
2008-03-31 08:36:38 51°15.496 2°50.775 275.7 12.3 277 14.3
2008-03-31 08:36:43 51°15.498 2°50.748 275.4 12.3 276 14.2
2008-03-31 08:36:47 51°15.499 2°50.726 275.2 12.3 277 14.3
2008-03-31 08:36:53 51°15.502 2°50.694 275.6 12.3 277 14.3
2008-03-31 08:36:58 51°15.504 2°50.667 276 12.3 277 14.4
2008-03-31 08:37:03 51°15.506 2°50.64 276.2 12.3 278 14.3
2008-03-31 08:37:07 51°15.508 2°50.619 275.9 12.3 277 14.3
2008-03-31 08:37:13 51°15.51 2°50.586 275.9 12.3 277 14.3
2008-03-31 08:37:18 51°15.512 2°50.559 275.7 12.3 276 14.4
2008-03-31 08:37:23 51°15.514 2°50.532 275.5 12.3 276 14.4
2008-03-31 08:37:27 51°15.516 2°50.51 275.5 12.3 276 14.4
2008-03-31 08:37:33 51°15.518 2°50.478 275.2 12.3 277 14.3
2008-03-31 08:37:38 51°15.52 2°50.451 275.6 12.3 277 14.3
2008-03-31 08:37:43 51°15.522 2°50.424 275.8 12.3 277 14.4
2008-03-31 08:37:47 51°15.523 2°50.402 275.8 12.3 276 14.3
2008-03-31 08:37:53 51°15.526 2°50.37 275.6 12.3 276 14.4
2008-03-31 08:37:58 51°15.528 2°50.342 275.5 12.4 277 14.4
2008-03-31 08:38:03 51°15.53 2°50.315 275.8 12.4 277 14.4
2008-03-31 08:38:08 51°15.532 2°50.288 276.4 12.4 277 14.4
2008-03-31 08:38:13 51°15.534 2°50.261 276.4 12.4 277 14.4
2008-03-31 08:38:18 51°15.536 2°50.234 276.4 12.4 277 14.4
2008-03-31 08:38:23 51°15.538 2°50.206 276.4 12.4 277 14.4
2008-03-31 08:38:28 51°15.54 2°50.179 275.9 12.4 276 14.4
2008-03-31 08:38:33 51°15.542 2°50.152 275.8 12.4 277 14.4
2008-03-31 08:38:38 51°15.544 2°50.125 276 12.4 277 14.4
2008-03-31 08:38:43 51°15.547 2°50.097 276.4 12.5 278 14.4
2008-03-31 08:38:48 51°15.549 2°50.07 277.1 12.4 278 14.5
2008-03-31 08:38:53 51°15.552 2°50.043 277.5 12.4 279 14.6
2008-03-31 08:38:58 51°15.555 2°50.016 277.9 12.4 279 14.5
2008-03-31 08:39:03 51°15.557 2°49.989 278.2 12.4 279 14.5
2008-03-31 08:39:08 51°15.56 2°49.962 278.3 12.4 279 14.6
2008-03-31 08:39:13 51°15.562 2°49.934 278.1 12.5 278 14.6
2008-03-31 08:39:18 51°15.565 2°49.907 277.8 12.4 278 14.6
2008-03-31 08:39:22 51°15.567 2°49.885 277.2 12.4 278 14.6
2008-03-31 08:39:27 51°15.569 2°49.858 276.6 12.4 277 14.6
2008-03-31 08:39:33 51°15.571 2°49.826 275.9 12.4 276 14.6
2008-03-31 08:39:38 51°15.573 2°49.798 275.4 12.4 276 14.7
2008-03-31 08:39:43 51°15.575 2°49.771 275.1 12.4 276 14.6
2008-03-31 08:39:47 51°15.576 2°49.749 275.1 12.4 276 14.5
2008-03-31 08:39:53 51°15.579 2°49.717 275.2 12.3 277 14.6
2008-03-31 08:39:58 51°15.58 2°49.689 275.6 12.4 276 14.6
2008-03-31 08:40:03 51°15.582 2°49.662 275.7 12.4 277 14.6
2008-03-31 08:40:07 51°15.584 2°49.641 276.1 12.4 277 14.6
2008-03-31 08:40:13 51°15.586 2°49.608 276.2 12.4 277 14.6
2008-03-31 08:40:18 51°15.589 2°49.581 276.4 12.3 277 14.6
2008-03-31 08:40:23 51°15.591 2°49.554 276.4 12.3 277 14.5
2008-03-31 08:40:28 51°15.592 2°49.526 275.7 12.4 276 14.4
2008-03-31 08:40:33 51°15.594 2°49.499 275.4 12.3 276 14.3
2008-03-31 08:40:38 51°15.596 2°49.472 275.4 12.3 277 14.3
2008-03-31 08:40:43 51°15.598 2°49.445 275.5 12.3 277 14.2
2008-03-31 08:40:47 51°15.6 2°49.423 275.7 12.3 277 14
2008-03-31 08:40:53 51°15.602 2°49.391 275.9 12.4 277 13.9
2008-03-31 08:40:58 51°15.604 2°49.364 276 12.3 277 13.7
2008-03-31 08:41:02 51°15.606 2°49.342 276.1 12.3 277 13.6
2008-03-31 08:41:08 51°15.609 2°49.31 276.1 12.4 277 13.4
2008-03-31 08:41:13 51°15.61 2°49.283 276.2 12.3 277 13.3
2008-03-31 08:41:18 51°15.613 2°49.255 276.2 12.4 277 13.2
2008-03-31 08:41:23 51°15.615 2°49.228 275.8 12.3 276 13
2008-03-31 08:41:27 51°15.616 2°49.207 275.7 12.3 277 13
2008-03-31 08:41:33 51°15.619 2°49.174 275.7 12.3 277 12.7
2008-03-31 08:41:38 51°15.621 2°49.147 275.8 12.3 277 12.6
2008-03-31 08:41:43 51°15.623 2°49.12 275.8 12.3 277 12.5
2008-03-31 08:41:47 51°15.625 2°49.099 275.8 12.3 278 12.4
2008-03-31 08:41:53 51°15.628 2°49.067 276.2 12.3 280 12.3
2008-03-31 08:41:58 51°15.633 2°49.041 279.9 12.3 287 12.2
2008-03-31 08:42:03 51°15.638 2°49.015 284.4 12.3 288 12.2
2008-03-31 08:42:07 51°15.643 2°48.994 287.3 12.4 290 12.1
2008-03-31 08:42:13 51°15.651 2°48.964 289.7 12.4 292 12.1
2008-03-31 08:42:18 51°15.658 2°48.939 291.3 12.4 295 12
2008-03-31 08:42:23 51°15.666 2°48.914 294 12.5 296 12
2008-03-31 08:42:27 51°15.674 2°48.896 298.5 12.5 302 12.1
2008-03-31 08:42:33 51°15.685 2°48.867 300.4 12.5 302 12.1
2008-03-31 08:42:38 51°15.695 2°48.845 302.1 12.6 305 12.1
2008-03-31 08:42:43 51°15.705 2°48.821 303.5 12.6 304 12.2
2008-03-31 08:42:47 51°15.713 2°48.803 304 12.6 305 12.3
2008-03-31 08:42:53 51°15.725 2°48.776 304.8 12.6 305 12.4
2008-03-31 08:42:58 51°15.735 2°48.753 304.5 12.6 304 12.5
2008-03-31 08:43:03 51°15.745 2°48.729 304 12.7 304 12.6
2008-03-31 08:43:08 51°15.754 2°48.706 303.9 12.7 304 12.7
2008-03-31 08:43:13 51°15.764 2°48.683 303.6 12.7 304 12.8
2008-03-31 08:43:18 51°15.774 2°48.66 303.5 12.7 304 12.9
2008-03-31 08:43:23 51°15.784 2°48.636 303.6 12.7 304 13.1
2008-03-31 08:43:28 51°15.794 2°48.613 303.7 12.7 304 13.1
2008-03-31 08:43:33 51°15.804 2°48.59 303.9 12.7 304 13.3
2008-03-31 08:43:38 51°15.813 2°48.566 303.5 12.7 304 13.4
2008-03-31 08:43:43 51°15.823 2°48.543 303.3 12.7 304 13.6
2008-03-31 08:43:47 51°15.831 2°48.524 302.7 12.6 302 13.7
2008-03-31 08:43:53 51°15.842 2°48.496 302.1 12.6 302 13.9
2008-03-31 08:43:58 51°15.851 2°48.472 301.6 12.6 301 14.1
2008-03-31 08:44:03 51°15.86 2°48.448 300.8 12.6 301 14.2
2008-03-31 08:44:07 51°15.867 2°48.429 300.2 12.6 300 14.4
2008-03-31 08:44:13 51°15.876 2°48.399 298.9 12.6 299 14.8
2008-03-31 08:44:18 51°15.884 2°48.374 298 12.5 297 14.9
2008-03-31 08:44:23 51°15.891 2°48.349 296 12.5 295 15.2
2008-03-31 08:44:27 51°15.898 2°48.329 294.9 12.5 296 15.4
2008-03-31 08:44:33 51°15.906 2°48.298 294.1 12.5 293 15.5
2008-03-31 08:44:38 51°15.913 2°48.273 293.7 12.5 295 15.7
2008-03-31 08:44:43 51°15.919 2°48.247 292.7 12.5 291 15.9
2008-03-31 08:44:47 51°15.924 2°48.227 290.4 12.4 290 15.9
2008-03-31 08:44:53 51°15.931 2°48.196 289.6 12.4 290 16.1
2008-03-31 08:44:58 51°15.935 2°48.169 286.8 12.4 285 16.2
2008-03-31 08:45:03 51°15.94 2°48.143 285.1 12.4 286 16.3
2008-03-31 08:45:08 51°15.943 2°48.116 283.9 12.4 283 16.4
2008-03-31 08:45:13 51°15.948 2°48.09 283 12.4 284 16.5
2008-03-31 08:45:18 51°15.951 2°48.063 282.2 12.4 282 16.6
2008-03-31 08:45:23 51°15.955 2°48.036 281.5 12.4 282 16.6
2008-03-31 08:45:28 51°15.959 2°48.009 281.2 12.4 282 16.7
2008-03-31 08:45:33 51°15.962 2°47.982 281.2 12.4 282 16.8
2008-03-31 08:45:38 51°15.966 2°47.955 281.1 12.4 282 16.8
2008-03-31 08:45:43 51°15.969 2°47.929 281 12.4 282 16.9
2008-03-31 08:45:48 51°15.973 2°47.902 281.1 12.4 282 16.8
2008-03-31 08:45:53 51°15.977 2°47.875 281.3 12.4 283 17
2008-03-31 08:45:58 51°15.981 2°47.848 281.6 12.5 283 17
2008-03-31 08:46:02 51°15.984 2°47.827 282.3 12.5 284 16.9
2008-03-31 08:46:07 51°15.988 2°47.8 283 12.4 285 16.9
2008-03-31 08:46:13 51°15.993 2°47.768 283.3 12.5 285 17.2
2008-03-31 08:46:18 51°15.997 2°47.741 283.4 12.5 284 17.3
2008-03-31 08:46:23 51°16.002 2°47.714 283.6 12.5 284 17.3
2008-03-31 08:46:27 51°16.004 2°47.693 281.7 12.4 281 17.4
2008-03-31 08:46:33 51°16.008 2°47.661 280.7 12.4 281 17.4
2008-03-31 08:46:38 51°16.011 2°47.634 279.7 12.4 280 17.4
2008-03-31 08:46:43 51°16.014 2°47.606 279 12.4 281 17.5
2008-03-31 08:46:47 51°16.016 2°47.585 278.6 12.4 279 17.5
2008-03-31 08:46:53 51°16.02 2°47.552 278.2 12.4 280 17.5
2008-03-31 08:46:58 51°16.022 2°47.525 277.9 12.4 278 17.5
2008-03-31 08:47:03 51°16.025 2°47.498 277.9 12.4 280 17.6
2008-03-31 08:47:07 51°16.027 2°47.476 277.9 12.4 279 17.6
2008-03-31 08:47:13 51°16.03 2°47.444 278.2 12.4 280 17.6
2008-03-31 08:47:18 51°16.033 2°47.417 278.7 12.4 281 17.6
2008-03-31 08:47:23 51°16.036 2°47.39 279.3 12.4 281 17.7
2008-03-31 08:47:27 51°16.039 2°47.368 280 12.4 282 17.7
2008-03-31 08:47:33 51°16.043 2°47.335 280 12.5 281 17.7
2008-03-31 08:47:38 51°16.047 2°47.308 280.3 12.5 282 17.7
2008-03-31 08:47:43 51°16.05 2°47.282 280.3 12.5 281 17.7
2008-03-31 08:47:48 51°16.054 2°47.255 280.3 12.5 282 17.6
2008-03-31 08:47:53 51°16.057 2°47.228 280.2 12.5 281 17.6
2008-03-31 08:47:58 51°16.06 2°47.201 279.9 12.5 281 17.5
2008-03-31 08:48:03 51°16.064 2°47.174 279.9 12.5 281 17.3
2008-03-31 08:48:08 51°16.067 2°47.147 279.9 12.5 281 17.3
2008-03-31 08:48:13 51°16.07 2°47.12 279.4 12.4 280 17.1
2008-03-31 08:48:18 51°16.074 2°47.093 279.2 12.4 281 16.9
2008-03-31 08:48:23 51°16.077 2°47.066 279.1 12.4 280 16.8
2008-03-31 08:48:27 51°16.079 2°47.044 279 12.4 280 16.8
2008-03-31 08:48:33 51°16.083 2°47.012 278.6 12.4 280 16.5
2008-03-31 08:48:38 51°16.086 2°46.985 278.2 12.4 279 16.2
2008-03-31 08:48:43 51°16.088 2°46.958 278 12.4 280 15.9
2008-03-31 08:48:47 51°16.091 2°46.936 278.1 12.3 280 16.1
2008-03-31 08:48:53 51°16.094 2°46.904 278.2 12.3 280 15.8
2008-03-31 08:48:58 51°16.097 2°46.877 278.2 12.3 280 15.4
2008-03-31 08:49:03 51°16.1 2°46.851 278.2 12.3 280 15.4
2008-03-31 08:49:07 51°16.103 2°46.829 278.2 12.3 280 15.6
2008-03-31 08:49:13 51°16.107 2°46.797 278.3 12.3 281 15.5
2008-03-31 08:49:18 51°16.11 2°46.77 278.9 12.4 280 15.5
2008-03-31 08:49:23 51°16.113 2°46.743 278.8 12.3 280 15.4
2008-03-31 08:49:28 51°16.116 2°46.716 278.4 12.3 280 15.3
2008-03-31 08:49:33 51°16.119 2°46.689 278.4 12.4 280 15.2
2008-03-31 08:49:38 51°16.122 2°46.662 278.5 12.4 280 15.1
2008-03-31 08:49:43 51°16.125 2°46.635 278.4 12.4 279 15
2008-03-31 08:49:48 51°16.128 2°46.609 278.4 12.4 280 14.3
2008-03-31 08:49:53 51°16.131 2°46.582 278.7 12.4 280 13.9
2008-03-31 08:49:58 51°16.134 2°46.555 278.6 12.4 280 14.1
2008-03-31 08:50:03 51°16.137 2°46.528 278.4 12.4 280 14.2
2008-03-31 08:50:07 51°16.139 2°46.506 278.5 12.4 280 14.1
2008-03-31 08:50:13 51°16.143 2°46.474 278.5 12.4 280 13.9
2008-03-31 08:50:18 51°16.146 2°46.447 278.2 12.4 280 13.9
2008-03-31 08:50:23 51°16.149 2°46.42 278.6 12.4 280 13.8
2008-03-31 08:50:28 51°16.152 2°46.393 278.6 12.4 280 13.6
2008-03-31 08:50:33 51°16.155 2°46.366 278.6 12.4 280 13.5
2008-03-31 08:50:38 51°16.158 2°46.339 278.6 12.4 280 13.4
2008-03-31 08:50:43 51°16.162 2°46.313 278.9 12.4 281 11.9
2008-03-31 08:50:47 51°16.164 2°46.291 279.2 12.3 281 11.9
2008-03-31 08:50:53 51°16.169 2°46.259 279.9 12.3 283 12.3
2008-03-31 08:50:58 51°16.172 2°46.233 280.4 12.3 282 12.4
2008-03-31 08:51:03 51°16.176 2°46.206 280.6 12.4 283 12.5
2008-03-31 08:51:07 51°16.179 2°46.184 280.8 12.4 282 12.4
2008-03-31 08:51:13 51°16.184 2°46.152 281.1 12.5 283 12.4
2008-03-31 08:51:18 51°16.187 2°46.125 281.1 12.4 282 12.4
2008-03-31 08:51:23 51°16.191 2°46.098 280.8 12.5 282 12.4
2008-03-31 08:51:28 51°16.194 2°46.071 279.7 12.4 281 12.3
2008-03-31 08:51:33 51°16.197 2°46.044 279.1 12.4 280 12.3
2008-03-31 08:51:38 51°16.201 2°46.017 278.6 12.5 280 12.4
2008-03-31 08:51:43 51°16.204 2°45.99 278.6 12.5 282 12.2
2008-03-31 08:51:47 51°16.208 2°45.969 281 12.5 285 12.4
2008-03-31 08:51:53 51°16.213 2°45.937 282.4 12.5 284 12.3
2008-03-31 08:51:58 51°16.218 2°45.911 283.7 12.5 287 12.2
2008-03-31 08:52:02 51°16.222 2°45.89 285.1 12.5 287 12
2008-03-31 08:52:08 51°16.229 2°45.858 285.9 12.6 288 12
2008-03-31 08:52:13 51°16.234 2°45.831 286.6 12.6 288 11.9
2008-03-31 08:52:18 51°16.24 2°45.805 286.6 12.6 289 11.8
2008-03-31 08:52:23 51°16.246 2°45.779 287.3 12.6 289 11.7
2008-03-31 08:52:28 51°16.251 2°45.753 287.3 12.5 289 11.7
2008-03-31 08:52:33 51°16.256 2°45.726 286.8 12.5 287 11.9
2008-03-31 08:52:38 51°16.261 2°45.7 285.8 12.5 287 11.8
2008-03-31 08:52:43 51°16.266 2°45.673 285 12.6 286 12
2008-03-31 08:52:47 51°16.271 2°45.652 285.8 12.6 289 11.8
2008-03-31 08:52:53 51°16.278 2°45.62 287.3 12.6 289 11.8
2008-03-31 08:52:58 51°16.284 2°45.594 288.5 12.6 291 11.8
2008-03-31 08:53:03 51°16.291 2°45.569 289.8 12.6 292 11.9
2008-03-31 08:53:07 51°16.296 2°45.548 289.9 12.6 292 11.9
2008-03-31 08:53:13 51°16.304 2°45.517 290.9 12.6 293 12
2008-03-31 08:53:18 51°16.311 2°45.491 291.2 12.7 293 12.2
2008-03-31 08:53:23 51°16.318 2°45.465 291.3 12.7 293 12.3
2008-03-31 08:53:27 51°16.323 2°45.444 291.4 12.7 293 12.2
2008-03-31 08:53:33 51°16.331 2°45.413 291.4 12.7 293 12.3
2008-03-31 08:53:38 51°16.338 2°45.388 291.7 12.7 293 12.3
2008-03-31 08:53:43 51°16.345 2°45.362 291.4 12.7 292 12.2
2008-03-31 08:53:47 51°16.35 2°45.341 291.1 12.7 293 12.2
2008-03-31 08:53:53 51°16.359 2°45.31 292.1 12.7 294 12.1
2008-03-31 08:53:58 51°16.367 2°45.285 292.7 12.7 295 12.1
2008-03-31 08:54:03 51°16.375 2°45.26 293.7 12.7 296 12.3
2008-03-31 08:54:08 51°16.382 2°45.234 294 12.7 295 12.3
2008-03-31 08:54:13 51°16.39 2°45.209 294.1 12.8 296 12.6
2008-03-31 08:54:18 51°16.398 2°45.184 294.7 12.8 297 12.5
2008-03-31 08:54:23 51°16.407 2°45.159 296.7 12.8 299 12.5
2008-03-31 08:54:28 51°16.415 2°45.134 297.3 12.8 298 12.5
2008-03-31 08:54:33 51°16.424 2°45.11 298.2 12.8 300 12.5
2008-03-31 08:54:38 51°16.433 2°45.086 298.5 12.8 300 12.7
2008-03-31 08:54:43 51°16.442 2°45.061 299.1 12.8 301 12.5
2008-03-31 08:54:48 51°16.451 2°45.037 298.9 12.8 300 12.7
2008-03-31 08:54:53 51°16.46 2°45.012 299 12.8 301 12.9
2008-03-31 08:54:58 51°16.469 2°44.988 299 12.8 300 12.6
2008-03-31 08:55:02 51°16.476 2°44.968 298.6 12.8 299 12.5
2008-03-31 08:55:08 51°16.486 2°44.939 298.1 12.8 299 12.3
2008-03-31 08:55:13 51°16.494 2°44.914 297.4 12.7 298 12.2
2008-03-31 08:55:18 51°16.503 2°44.889 297 12.7 298 12.1
2008-03-31 08:55:23 51°16.511 2°44.865 296.6 12.7 298 11.8
2008-03-31 08:55:27 51°16.518 2°44.845 296.6 12.7 299 11.7
2008-03-31 08:55:33 51°16.529 2°44.816 297.6 12.7 301 11.6
2008-03-31 08:55:38 51°16.538 2°44.792 298.7 12.7 300 11.8
2008-03-31 08:55:43 51°16.547 2°44.768 299.3 12.7 302 12.1
2008-03-31 08:55:47 51°16.554 2°44.748 299.7 12.7 301 12.2
2008-03-31 08:55:53 51°16.566 2°44.72 300.4 12.8 302 12.4
2008-03-31 08:55:58 51°16.575 2°44.696 300.4 12.8 301 12.7
2008-03-31 08:56:03 51°16.584 2°44.672 300.2 12.8 302 12.7
2008-03-31 08:56:07 51°16.591 2°44.652 300.2 12.8 301 12.8
2008-03-31 08:56:13 51°16.602 2°44.623 299.9 12.8 301 12.8
2008-03-31 08:56:18 51°16.612 2°44.599 299.6 12.8 301 13.1
2008-03-31 08:56:23 51°16.621 2°44.575 300.2 12.8 302 13.4
2008-03-31 08:56:27 51°16.629 2°44.556 301.1 12.8 303 13.7
2008-03-31 08:56:33 51°16.641 2°44.528 301.5 12.8 303 13.6
2008-03-31 08:56:38 51°16.65 2°44.505 302.1 12.8 304 14.1
2008-03-31 08:56:43 51°16.66 2°44.481 302.5 12.8 304 14.5
2008-03-31 08:56:48 51°16.67 2°44.457 302.2 12.8 303 15
2008-03-31 08:56:53 51°16.68 2°44.433 302.3 12.8 303 15.2
2008-03-31 08:56:58 51°16.689 2°44.41 301.9 12.8 303 15.5
2008-03-31 08:57:03 51°16.699 2°44.386 301.6 12.8 303 15.6
2008-03-31 08:57:08 51°16.709 2°44.362 301.8 12.8 303 15.9
2008-03-31 08:57:13 51°16.719 2°44.339 302.1 12.8 304 16
2008-03-31 08:57:18 51°16.729 2°44.316 302.6 12.8 305 15.9
2008-03-31 08:57:23 51°16.739 2°44.292 303.5 12.8 305 16.2
2008-03-31 08:57:28 51°16.749 2°44.269 303.9 12.8 305 16.1
2008-03-31 08:57:33 51°16.76 2°44.246 304 12.8 305 16.2
2008-03-31 08:57:38 51°16.77 2°44.223 303.8 12.8 305 16.2
2008-03-31 08:57:43 51°16.78 2°44.199 303.7 12.8 305 16.3
2008-03-31 08:57:47 51°16.788 2°44.181 303.5 12.8 305 16.4
2008-03-31 08:57:53 51°16.8 2°44.153 303.4 12.8 304 16.4
2008-03-31 08:57:58 51°16.81 2°44.129 303 12.8 304 16.4
2008-03-31 08:58:03 51°16.819 2°44.105 302.4 12.8 303 16.4
2008-03-31 08:58:07 51°16.827 2°44.086 302.2 12.8 303 16.5
2008-03-31 08:58:13 51°16.839 2°44.058 302.1 12.8 303 16.7
2008-03-31 08:58:18 51°16.849 2°44.034 301.9 12.7 303 16.7
2008-03-31 08:58:23 51°16.858 2°44.01 302 12.8 303 16.7
2008-03-31 08:58:28 51°16.868 2°43.987 301.8 12.8 303 16.7
2008-03-31 08:58:33 51°16.878 2°43.963 301.8 12.8 303 16.3
2008-03-31 08:58:38 51°16.887 2°43.939 302.1 12.8 303 16.3
2008-03-31 08:58:43 51°16.897 2°43.916 302 12.8 303 16.6
2008-03-31 08:58:48 51°16.906 2°43.892 301.8 12.8 302 16.5
2008-03-31 08:58:53 51°16.916 2°43.868 301.5 12.8 303 16.1
2008-03-31 08:58:58 51°16.926 2°43.844 301.6 12.8 303 16.1
2008-03-31 08:59:03 51°16.935 2°43.821 301.5 12.8 303 16.1
2008-03-31 08:59:07 51°16.943 2°43.802 301.5 12.8 303 16.5
2008-03-31 08:59:13 51°16.954 2°43.773 301.5 12.8 303 16.3
2008-03-31 08:59:18 51°16.964 2°43.749 301.6 12.8 302 16.1
2008-03-31 08:59:23 51°16.973 2°43.725 301.7 12.7 303 16.2
2008-03-31 08:59:28 51°16.983 2°43.702 301.9 12.8 303 15.9
2008-03-31 08:59:33 51°16.993 2°43.678 302 12.8 303 15.9
2008-03-31 08:59:38 51°17.003 2°43.655 302.6 12.8 304 15.4
2008-03-31 08:59:43 51°17.013 2°43.632 303.3 12.8 304 15.9
2008-03-31 08:59:47 51°17.021 2°43.613 303.7 12.8 305 15.9
2008-03-31 08:59:53 51°17.033 2°43.585 304.2 12.8 305 15.8
2008-03-31 08:59:58 51°17.043 2°43.562 304 12.8 304 15.9
2008-03-31 09:00:03 51°17.053 2°43.539 303.7 12.8 304 15.9
2008-03-31 09:00:07 51°17.061 2°43.52 302.9 12.8 303 15.8
2008-03-31 09:00:13 51°17.072 2°43.491 302.2 12.8 303 15.8
2008-03-31 09:00:18 51°17.082 2°43.467 301.8 12.8 303 15.9
2008-03-31 09:00:23 51°17.091 2°43.443 301.3 12.7 302 15.7
2008-03-31 09:00:28 51°17.101 2°43.42 301.3 12.7 303 15.6
2008-03-31 09:00:33 51°17.11 2°43.396 301.7 12.7 303 15.5
2008-03-31 09:00:38 51°17.12 2°43.372 301.8 12.7 303 15.4
2008-03-31 09:00:43 51°17.13 2°43.349 301.9 12.7 303 14.9
2008-03-31 09:00:47 51°17.138 2°43.33 302.6 12.8 304 14.5
2008-03-31 09:00:53 51°17.149 2°43.302 302.8 12.7 304 14
2008-03-31 09:00:58 51°17.16 2°43.279 303.5 12.7 305 13.4
2008-03-31 09:01:03 51°17.17 2°43.256 303.9 12.7 305 12.3
2008-03-31 09:01:08 51°17.18 2°43.233 304.2 12.7 305 13.9
2008-03-31 09:01:13 51°17.19 2°43.21 304.1 12.7 305 14.6
2008-03-31 09:01:18 51°17.2 2°43.187 303.7 12.8 305 14.1
2008-03-31 09:01:23 51°17.21 2°43.164 303.9 12.8 305 13.2
2008-03-31 09:01:28 51°17.22 2°43.141 304 12.7 305 12.1
2008-03-31 09:01:33 51°17.23 2°43.118 303.9 12.7 305 13.3
2008-03-31 09:01:38 51°17.24 2°43.094 303.8 12.7 304 14.4
2008-03-31 09:01:43 51°17.25 2°43.071 303.8 12.8 305 14.1
2008-03-31 09:01:47 51°17.258 2°43.052 303.5 12.8 304 13.8
2008-03-31 09:01:53 51°17.27 2°43.025 303.1 12.7 304 12.9
2008-03-31 09:01:58 51°17.279 2°43.001 302.3 12.7 302 12.3
2008-03-31 09:02:03 51°17.289 2°42.978 301.8 12.6 303 11.4
2008-03-31 09:02:07 51°17.296 2°42.958 301.7 12.6 302 11.7
2008-03-31 09:02:13 51°17.307 2°42.93 301.1 12.6 302 11.6
2008-03-31 09:02:18 51°17.317 2°42.906 300.6 12.6 302 11.6
2008-03-31 09:02:23 51°17.326 2°42.883 300.5 12.6 302 11.2
2008-03-31 09:02:27 51°17.334 2°42.864 300.9 12.6 303 10.6
2008-03-31 09:02:33 51°17.345 2°42.836 301.1 12.6 303 9.9
2008-03-31 09:02:38 51°17.354 2°42.812 301.2 12.6 302 11.7
2008-03-31 09:02:43 51°17.364 2°42.789 301.4 12.7 303 12.9
2008-03-31 09:02:47 51°17.371 2°42.77 301.5 12.8 303 13
2008-03-31 09:02:53 51°17.383 2°42.741 301.5 12.8 303 13
2008-03-31 09:02:58 51°17.393 2°42.718 301.5 12.8 303 13.5
2008-03-31 09:03:03 51°17.403 2°42.694 301.6 12.7 303 13.9
2008-03-31 09:03:08 51°17.413 2°42.671 302.2 12.8 304 14.7
2008-03-31 09:03:13 51°17.422 2°42.647 302.1 12.8 304 15.6
2008-03-31 09:03:18 51°17.433 2°42.624 302.1 12.8 304 17.1
2008-03-31 09:03:23 51°17.443 2°42.601 302.5 12.8 305 19.5
2008-03-31 09:03:28 51°17.453 2°42.578 303.3 12.9 306 21.2
2008-03-31 09:03:33 51°17.464 2°42.554 303.7 12.9 306 22
2008-03-31 09:03:38 51°17.474 2°42.531 304 12.8 306 22.4
2008-03-31 09:03:43 51°17.484 2°42.508 303.6 12.8 304 22.8
2008-03-31 09:03:48 51°17.494 2°42.484 302.6 12.8 304 23.2
2008-03-31 09:03:53 51°17.504 2°42.461 301.8 12.8 303 23.5
2008-03-31 09:03:58 51°17.514 2°42.438 301.8 12.8 304 23.8
2008-03-31 09:04:02 51°17.522 2°42.419 301.8 12.8 303 24
2008-03-31 09:04:08 51°17.534 2°42.391 301.6 12.8 304 24.2
2008-03-31 09:04:13 51°17.544 2°42.368 302.5 12.8 305 24.5
2008-03-31 09:04:18 51°17.554 2°42.344 302.9 12.8 305 24.4
2008-03-31 09:04:23 51°17.565 2°42.321 303.3 12.8 306 24.7
2008-03-31 09:04:27 51°17.573 2°42.303 303.7 12.8 306 24.6
2008-03-31 09:04:33 51°17.585 2°42.275 303.7 12.8 306 24.6
2008-03-31 09:04:38 51°17.595 2°42.252 303.4 12.8 305 24.7
2008-03-31 09:04:43 51°17.606 2°42.229 303.4 12.8 306 24.9
2008-03-31 09:04:47 51°17.614 2°42.21 303.1 12.8 305 25
2008-03-31 09:04:53 51°17.626 2°42.183 302.6 12.8 305 25.1
2008-03-31 09:04:58 51°17.636 2°42.159 302.4 12.8 304 25.4
2008-03-31 09:05:03 51°17.646 2°42.136 302 12.8 305 25.6
2008-03-31 09:05:07 51°17.654 2°42.117 302.2 12.8 305 25.3
2008-03-31 09:05:13 51°17.667 2°42.09 302.6 12.8 305 25.2
2008-03-31 09:05:18 51°17.677 2°42.066 302.2 12.8 304 25.2
2008-03-31 09:05:23 51°17.687 2°42.043 301.8 12.8 304 25.2
2008-03-31 09:05:27 51°17.694 2°42.024 301.4 12.8 303 25.5
2008-03-31 09:05:33 51°17.706 2°41.996 301 12.8 303 25.3
2008-03-31 09:05:38 51°17.716 2°41.972 301 12.8 303 25.3
2008-03-31 09:05:43 51°17.726 2°41.949 301 12.8 303 25.5
2008-03-31 09:05:48 51°17.735 2°41.925 301.1 12.8 304 25.3
2008-03-31 09:05:53 51°17.745 2°41.902 301.7 12.7 304 25.3
2008-03-31 09:05:58 51°17.755 2°41.878 301.6 12.7 304 25.3
2008-03-31 09:06:03 51°17.765 2°41.855 301.4 12.8 304 25.4
2008-03-31 09:06:08 51°17.775 2°41.832 301.9 12.8 304 25.4
2008-03-31 09:06:13 51°17.784 2°41.808 302 12.8 304 25.3
2008-03-31 09:06:18 51°17.794 2°41.784 301.8 12.8 304 25.3
2008-03-31 09:06:23 51°17.804 2°41.761 301.8 12.7 304 25.3
2008-03-31 09:06:28 51°17.814 2°41.738 301.6 12.8 303 25.3
2008-03-31 09:06:33 51°17.824 2°41.714 301.5 12.8 303 25.3
2008-03-31 09:06:38 51°17.833 2°41.69 301.4 12.8 303 25.2
2008-03-31 09:06:43 51°17.843 2°41.667 301.4 12.8 304 25.2
2008-03-31 09:06:47 51°17.851 2°41.648 301.8 12.8 303 25
2008-03-31 09:06:53 51°17.863 2°41.62 301.9 12.8 305 25
2008-03-31 09:06:58 51°17.873 2°41.596 302.6 12.8 305 24.9
2008-03-31 09:07:03 51°17.884 2°41.573 303.3 12.8 306 24.9
2008-03-31 09:07:07 51°17.892 2°41.555 303.7 12.9 305 24.8
2008-03-31 09:07:13 51°17.904 2°41.527 303.6 12.8 305 24.8
2008-03-31 09:07:18 51°17.914 2°41.504 303.3 12.8 305 24.6
2008-03-31 09:07:23 51°17.924 2°41.48 303.1 12.8 304 24.6
2008-03-31 09:07:28 51°17.934 2°41.457 303 12.8 304 24.5
2008-03-31 09:07:33 51°17.944 2°41.433 302.1 12.8 303 24
2008-03-31 09:07:38 51°17.954 2°41.409 301.8 12.7 303 23.1
2008-03-31 09:07:43 51°17.963 2°41.386 301.8 12.7 303 23.8
2008-03-31 09:07:48 51°17.973 2°41.362 301.8 12.8 304 23.9
2008-03-31 09:07:53 51°17.983 2°41.339 302.3 12.7 304 23.7
2008-03-31 09:07:58 51°17.993 2°41.316 302.8 12.7 305 23.9
2008-03-31 09:08:03 51°18.003 2°41.293 303.3 12.7 304 23.7
2008-03-31 09:08:07 51°18.011 2°41.274 303.4 12.7 304 23.6
2008-03-31 09:08:13 51°18.023 2°41.246 303.4 12.8 304 23.3
2008-03-31 09:08:18 51°18.032 2°41.222 302.6 12.7 302 22.8
2008-03-31 09:08:23 51°18.042 2°41.199 302.3 12.8 304 22.1
2008-03-31 09:08:28 51°18.052 2°41.175 302.4 12.8 304 20.6
2008-03-31 09:08:33 51°18.062 2°41.152 302.9 12.8 305 21.2
2008-03-31 09:08:38 51°18.072 2°41.129 303.6 12.8 305 21.9
2008-03-31 09:08:43 51°18.082 2°41.106 303.2 12.8 304 22.2
2008-03-31 09:08:48 51°18.092 2°41.082 302.8 12.8 304 21.9
2008-03-31 09:08:53 51°18.102 2°41.059 302.6 12.8 304 21.7
2008-03-31 09:08:58 51°18.112 2°41.036 303.2 12.7 305 21.6
2008-03-31 09:09:03 51°18.122 2°41.013 303.3 12.7 304 20.7
2008-03-31 09:09:07 51°18.13 2°40.994 303.3 12.7 305 17.2
2008-03-31 09:09:13 51°18.142 2°40.966 303.3 12.7 305 18.7
2008-03-31 09:09:18 51°18.152 2°40.943 303.3 12.7 304 19.4
2008-03-31 09:09:23 51°18.162 2°40.92 303.2 12.7 304 18.7
2008-03-31 09:09:28 51°18.171 2°40.897 302.4 12.7 303 16.3
2008-03-31 09:09:33 51°18.181 2°40.873 301.8 12.7 303 17.6
2008-03-31 09:09:38 51°18.191 2°40.85 301.4 12.6 303 15.5
2008-03-31 09:09:43 51°18.2 2°40.827 301.3 12.6 304 15
2008-03-31 09:09:47 51°18.208 2°40.808 301.3 12.5 303 16.7
2008-03-31 09:09:53 51°18.22 2°40.78 301.5 12.6 304 18.2
2008-03-31 09:09:58 51°18.23 2°40.757 301.9 12.7 304 19
2008-03-31 09:10:03 51°18.24 2°40.734 302.1 12.7 305 19.7
2008-03-31 09:10:08 51°18.25 2°40.711 302.6 12.7 305 19.6
2008-03-31 09:10:13 51°18.26 2°40.688 302.7 12.6 305 19
2008-03-31 09:10:18 51°18.27 2°40.666 303.4 12.7 306 17.5
2008-03-31 09:10:23 51°18.28 2°40.643 303.4 12.6 306 19
2008-03-31 09:10:28 51°18.29 2°40.62 303.3 12.6 306 19.7
2008-03-31 09:10:33 51°18.301 2°40.598 303.1 12.6 306 19.8
2008-03-31 09:10:38 51°18.311 2°40.575 303.1 12.6 305 20.2
2008-03-31 09:10:43 51°18.321 2°40.552 303.1 12.6 305 20.7
2008-03-31 09:10:48 51°18.331 2°40.529 302.8 12.6 305 19
2008-03-31 09:10:53 51°18.341 2°40.506 302.3 12.6 304 17
2008-03-31 09:10:58 51°18.35 2°40.483 301.8 12.5 304 17
2008-03-31 09:11:03 51°18.36 2°40.459 301.1 12.6 303 17.5
2008-03-31 09:11:07 51°18.367 2°40.441 300.9 12.6 304 17.9
2008-03-31 09:11:13 51°18.379 2°40.413 300.9 12.6 303 17.9
2008-03-31 09:11:18 51°18.388 2°40.39 301.1 12.6 304 17.7
2008-03-31 09:11:23 51°18.398 2°40.367 301.3 12.6 304 16.8
2008-03-31 09:11:27 51°18.406 2°40.348 301.4 12.6 305 13.3
2008-03-31 09:11:33 51°18.418 2°40.321 301.8 12.5 305 11.6
2008-03-31 09:11:38 51°18.428 2°40.299 302.5 12.4 306 14.5
2008-03-31 09:11:43 51°18.438 2°40.276 303.2 12.5 306 16.7
2008-03-31 09:11:47 51°18.447 2°40.258 303.2 12.6 306 18.2
2008-03-31 09:11:53 51°18.459 2°40.231 303.3 12.7 306 20
2008-03-31 09:11:58 51°18.469 2°40.208 303.1 12.7 305 21.9
2008-03-31 09:12:03 51°18.479 2°40.185 302.9 12.7 305 23.5
2008-03-31 09:12:08 51°18.489 2°40.162 302.6 12.6 305 24.4
2008-03-31 09:12:13 51°18.499 2°40.139 302.2 12.6 304 25.1
2008-03-31 09:12:18 51°18.509 2°40.116 301.8 12.6 304 25.5
2008-03-31 09:12:23 51°18.518 2°40.092 301.1 12.6 303 25.7
2008-03-31 09:12:28 51°18.528 2°40.069 301.1 12.6 304 25.9
2008-03-31 09:12:33 51°18.538 2°40.046 301.2 12.6 304 26
2008-03-31 09:12:38 51°18.547 2°40.023 301.3 12.6 304 25.9
2008-03-31 09:12:43 51°18.557 2°40 301.7 12.6 304 26.1
2008-03-31 09:12:48 51°18.567 2°39.977 301.6 12.6 304 26.4
2008-03-31 09:12:53 51°18.577 2°39.954 301.9 12.6 305 26
2008-03-31 09:12:58 51°18.587 2°39.931 302.2 12.6 304 25.9
2008-03-31 09:13:02 51°18.595 2°39.913 302.1 12.6 305 25.8
2008-03-31 09:13:07 51°18.605 2°39.89 302.1 12.6 305 26.4
2008-03-31 09:13:13 51°18.617 2°39.862 302.6 12.6 305 26.2
2008-03-31 09:13:18 51°18.627 2°39.84 303.1 12.6 306 26.3
2008-03-31 09:13:23 51°18.637 2°39.817 303.3 12.6 306 26.1
2008-03-31 09:13:27 51°18.645 2°39.799 303.2 12.6 305 26.4
2008-03-31 09:13:33 51°18.657 2°39.771 302.2 12.6 305 26
2008-03-31 09:13:38 51°18.667 2°39.749 302.2 12.6 305 26
2008-03-31 09:13:43 51°18.677 2°39.725 302.2 12.6 304 25.7
2008-03-31 09:13:47 51°18.684 2°39.707 301.5 12.6 304 25.8
2008-03-31 09:13:53 51°18.696 2°39.679 301.5 12.6 304 25.8
2008-03-31 09:13:58 51°18.706 2°39.656 301.4 12.6 303 26
2008-03-31 09:14:03 51°18.715 2°39.633 301.4 12.6 304 25.9
2008-03-31 09:14:07 51°18.723 2°39.614 301.8 12.6 304 26
2008-03-31 09:14:13 51°18.735 2°39.587 302 12.6 305 26.1
2008-03-31 09:14:18 51°18.745 2°39.563 302.6 12.6 304 26.1
2008-03-31 09:14:23 51°18.755 2°39.541 303 12.6 305 26.1
2008-03-31 09:14:27 51°18.763 2°39.522 303.3 12.6 305 26.1
2008-03-31 09:14:33 51°18.775 2°39.495 303.4 12.6 305 26.1
2008-03-31 09:14:38 51°18.786 2°39.472 303.3 12.7 305 26.2
2008-03-31 09:14:43 51°18.795 2°39.449 303 12.7 304 26.3
2008-03-31 09:14:48 51°18.805 2°39.425 302.4 12.7 304 26.2
2008-03-31 09:14:53 51°18.815 2°39.402 301.9 12.6 304 26.3
2008-03-31 09:14:58 51°18.825 2°39.379 302 12.6 304 26.4
2008-03-31 09:15:03 51°18.834 2°39.356 301.8 12.6 303 26.5
2008-03-31 09:15:08 51°18.844 2°39.332 301.8 12.7 304 26.6
2008-03-31 09:15:13 51°18.854 2°39.309 301.8 12.7 303 26.8
2008-03-31 09:15:18 51°18.863 2°39.285 301.6 12.7 303 26.9
2008-03-31 09:15:23 51°18.873 2°39.262 301.3 12.6 303 27.1
2008-03-31 09:15:28 51°18.882 2°39.239 301.4 12.6 304 27.1
2008-03-31 09:15:33 51°18.892 2°39.215 301.5 12.6 303 27.2
2008-03-31 09:15:38 51°18.902 2°39.192 301.8 12.7 304 27.5
2008-03-31 09:15:43 51°18.912 2°39.169 302 12.7 304 27.7
2008-03-31 09:15:47 51°18.92 2°39.15 302.4 12.7 305 28
2008-03-31 09:15:53 51°18.932 2°39.123 303 12.7 305 28.2
2008-03-31 09:15:58 51°18.942 2°39.1 303.3 12.7 305 28.4
2008-03-31 09:16:03 51°18.952 2°39.077 303.3 12.7 304 28.4
2008-03-31 09:16:07 51°18.96 2°39.058 303 12.7 305 28.6
2008-03-31 09:16:13 51°18.972 2°39.03 302.9 12.7 305 28.7
2008-03-31 09:16:18 51°18.982 2°39.008 303.1 12.7 306 28.8
2008-03-31 09:16:23 51°18.992 2°38.984 303.2 12.7 304 29.1
2008-03-31 09:16:28 51°19.002 2°38.961 302.6 12.6 305 28.8
2008-03-31 09:16:33 51°19.012 2°38.938 302.9 12.7 304 29
2008-03-31 09:16:38 51°19.022 2°38.915 302.2 12.6 303 29
2008-03-31 09:16:43 51°19.031 2°38.892 301.8 12.6 304 28.9
2008-03-31 09:16:48 51°19.041 2°38.868 301.6 12.6 303 29
2008-03-31 09:16:53 51°19.05 2°38.845 301.2 12.6 303 29.1
2008-03-31 09:16:58 51°19.06 2°38.822 301.4 12.6 304 28.9
2008-03-31 09:17:03 51°19.069 2°38.798 301.7 12.6 303 28.9
2008-03-31 09:17:07 51°19.077 2°38.78 301.6 12.6 304 29.1
2008-03-31 09:17:13 51°19.089 2°38.752 301.8 12.6 303 29.3
2008-03-31 09:17:18 51°19.098 2°38.728 301.8 12.6 303 29.1
2008-03-31 09:17:23 51°19.108 2°38.705 301.8 12.6 303 28.9
2008-03-31 09:17:28 51°19.117 2°38.682 301.6 12.6 303 28.9
2008-03-31 09:17:33 51°19.127 2°38.658 301.8 12.6 304 28.9
2008-03-31 09:17:38 51°19.137 2°38.636 302.6 12.6 304 29
2008-03-31 09:17:43 51°19.147 2°38.613 303.1 12.6 305 28.8
2008-03-31 09:17:47 51°19.155 2°38.594 303.2 12.6 305 28.6
2008-03-31 09:17:53 51°19.167 2°38.567 303.3 12.6 305 28.6
2008-03-31 09:17:58 51°19.177 2°38.544 303.3 12.6 305 28.7
2008-03-31 09:18:03 51°19.187 2°38.521 303.3 12.6 304 28.6
2008-03-31 09:18:07 51°19.195 2°38.502 303.2 12.6 304 28
2008-03-31 09:18:13 51°19.206 2°38.474 302.5 12.6 303 27.7
2008-03-31 09:18:18 51°19.216 2°38.451 301.8 12.6 303 27.6
2008-03-31 09:18:23 51°19.226 2°38.428 301.8 12.6 303 27.2
2008-03-31 09:18:28 51°19.236 2°38.404 301.9 12.6 304 27.4
2008-03-31 09:18:33 51°19.245 2°38.381 301.8 12.6 304 26.7
2008-03-31 09:18:38 51°19.255 2°38.358 302.4 12.6 304 26.6
2008-03-31 09:18:43 51°19.265 2°38.335 302.8 12.6 304 26.2
2008-03-31 09:18:47 51°19.273 2°38.317 303.2 12.6 305 26.1
2008-03-31 09:18:53 51°19.285 2°38.289 303.3 12.6 305 25.4
2008-03-31 09:18:58 51°19.296 2°38.267 303.3 12.6 306 25.1
2008-03-31 09:19:03 51°19.306 2°38.244 303.5 12.7 306 24.9
2008-03-31 09:19:08 51°19.318 2°38.224 306.2 12.6 312 24.5
2008-03-31 09:19:13 51°19.33 2°38.203 309.6 12.6 312 24.1
2008-03-31 09:19:18 51°19.342 2°38.182 310.5 12.7 313 23.4
2008-03-31 09:19:23 51°19.354 2°38.162 312.6 12.7 314 23.9
2008-03-31 09:19:28 51°19.367 2°38.142 312.8 12.7 315 24.4
2008-03-31 09:19:33 51°19.38 2°38.123 313.8 12.8 315 24.3
2008-03-31 09:19:38 51°19.392 2°38.103 314.3 12.7 316 24.1
2008-03-31 09:19:43 51°19.405 2°38.083 314.8 12.7 317 23.7
2008-03-31 09:19:48 51°19.418 2°38.064 314.7 12.8 316 22.8
2008-03-31 09:19:53 51°19.43 2°38.044 314.6 12.8 316 21.3
2008-03-31 09:19:58 51°19.443 2°38.024 314.6 12.8 316 22.9
2008-03-31 09:20:03 51°19.456 2°38.004 314.2 12.8 315 23.4
2008-03-31 09:20:07 51°19.466 2°37.989 314 12.8 315 22.8
2008-03-31 09:20:13 51°19.481 2°37.965 313.4 12.8 315 23
2008-03-31 09:20:18 51°19.494 2°37.945 313.5 12.8 318 22.9
2008-03-31 09:20:23 51°19.508 2°37.928 316.4 12.8 322 23
2008-03-31 09:20:27 51°19.52 2°37.915 320.6 12.7 325 23.1
2008-03-31 09:20:33 51°19.539 2°37.899 326.2 12.7 331 22.9
2008-03-31 09:20:38 51°19.555 2°37.886 329.4 12.8 332 22.5
2008-03-31 09:20:43 51°19.571 2°37.873 331.6 12.8 334 22.8
2008-03-31 09:20:47 51°19.583 2°37.863 332.6 12.8 334 22.8
2008-03-31 09:20:53 51°19.602 2°37.848 333.1 12.9 334 23.4
2008-03-31 09:20:58 51°19.618 2°37.835 332.6 12.9 332 23.1
2008-03-31 09:21:03 51°19.634 2°37.821 330.9 12.9 331 23.2
2008-03-31 09:21:08 51°19.649 2°37.807 330.2 12.9 331 23.4
2008-03-31 09:21:13 51°19.665 2°37.793 329.3 12.9 330 23.6
2008-03-31 09:21:18 51°19.68 2°37.779 328.7 12.9 331 23.1
2008-03-31 09:21:23 51°19.696 2°37.765 329.2 12.9 331 23.2
2008-03-31 09:21:28 51°19.712 2°37.752 329.9 12.9 332 23.3
2008-03-31 09:21:33 51°19.728 2°37.74 331 12.9 334 23.1
2008-03-31 09:21:38 51°19.744 2°37.728 333 12.9 336 22.7
2008-03-31 09:21:43 51°19.761 2°37.717 335.2 12.9 337 21.9
2008-03-31 09:21:48 51°19.778 2°37.706 336 12.9 338 22.2
2008-03-31 09:21:53 51°19.794 2°37.696 337.2 13 339 23.4
2008-03-31 09:21:58 51°19.811 2°37.686 337.4 13 339 23.5
2008-03-31 09:22:02 51°19.824 2°37.678 338 12.9 340 23.7
2008-03-31 09:22:08 51°19.845 2°37.665 338.1 13 339 24.1
2008-03-31 09:22:13 51°19.861 2°37.655 338.7 12.9 339 23.6
2008-03-31 09:22:18 51°19.878 2°37.644 337.8 12.9 336 23.7
2008-03-31 09:22:23 51°19.894 2°37.631 335.5 12.9 335 23.5
2008-03-31 09:22:28 51°19.909 2°37.617 332.2 12.8 330 23.1
2008-03-31 09:22:33 51°19.924 2°37.601 328.6 12.7 327 23.5
2008-03-31 09:22:38 51°19.938 2°37.584 325.2 12.7 324 23.7
2008-03-31 09:22:43 51°19.952 2°37.568 322.9 12.7 323 23.6
2008-03-31 09:22:47 51°19.963 2°37.553 320.7 12.8 321 23.8
2008-03-31 09:22:53 51°19.98 2°37.532 320 12.8 321 23.9
2008-03-31 09:22:58 51°19.994 2°37.515 319.7 12.8 322 24
2008-03-31 09:23:03 51°20.008 2°37.498 320 12.8 322 23.2
2008-03-31 09:23:07 51°20.019 2°37.484 320.7 12.8 323 23.2
2008-03-31 09:23:13 51°20.037 2°37.464 321.6 12.8 325 22.7
2008-03-31 09:23:18 51°20.051 2°37.449 323.1 12.3 326 21.9
2008-03-31 09:23:23 51°20.065 2°37.436 325.6 11.7 329 21.7
2008-03-31 09:23:27 51°20.075 2°37.425 327.1 11.1 328 22.5
2008-03-31 09:23:33 51°20.09 2°37.41 326.7 10.6 327 22.9
2008-03-31 09:23:38 51°20.101 2°37.397 324.4 10.1 323 22.8
2008-03-31 09:23:43 51°20.111 2°37.383 320.7 9.4 317 23
2008-03-31 09:23:48 51°20.118 2°37.367 313.5 9 310 23.2
2008-03-31 09:23:53 51°20.125 2°37.351 306.6 8.6 305 22.7
2008-03-31 09:23:58 51°20.13 2°37.336 300.5 8.1 299 22.4
2008-03-31 09:24:03 51°20.134 2°37.322 294.6 7.3 296 22.1
2008-03-31 09:24:08 51°20.137 2°37.308 289 6.5 289 21.4
2008-03-31 09:24:13 51°20.139 2°37.295 283.4 5.9 284 22.3
2008-03-31 09:24:18 51°20.14 2°37.284 278 5.5 280 23.3
2008-03-31 09:24:23 51°20.141 2°37.272 272.8 5.1 276 23.5
2008-03-31 09:24:28 51°20.141 2°37.262 268.1 4.8 271 23.7
2008-03-31 09:24:33 51°20.141 2°37.253 263.3 4.4 267 23.4
2008-03-31 09:24:38 51°20.14 2°37.243 259.3 4.2 264 22.9
2008-03-31 09:24:43 51°20.139 2°37.234 256.1 4.1 262 22.6
2008-03-31 09:24:47 51°20.138 2°37.227 253.3 3.9 259 22
2008-03-31 09:24:53 51°20.137 2°37.218 250.9 3.8 256 23.2
2008-03-31 09:24:58 51°20.135 2°37.21 248.9 3.7 255 23.4
2008-03-31 09:25:03 51°20.134 2°37.202 247.4 3.7 254 23.8
2008-03-31 09:25:07 51°20.133 2°37.196 246.7 3.6 253 23.7
2008-03-31 09:25:13 51°20.131 2°37.187 246 3.6 252 23.5
2008-03-31 09:25:18 51°20.13 2°37.179 246 3.6 252 23.7
2008-03-31 09:25:23 51°20.128 2°37.171 245.8 3.9 250 23.4
2008-03-31 09:25:28 51°20.126 2°37.162 246 4 252 23
2008-03-31 09:25:33 51°20.124 2°37.153 245.9 4.3 249 22.9
2008-03-31 09:25:38 51°20.122 2°37.144 245.5 4.4 249 22.4
2008-03-31 09:25:43 51°20.119 2°37.135 244.6 4.6 248 21.8
2008-03-31 09:25:48 51°20.117 2°37.125 243.7 4.7 247 21.5
2008-03-31 09:25:53 51°20.114 2°37.115 242.8 4.8 246 22.8
2008-03-31 09:25:58 51°20.112 2°37.105 241.8 4.9 245 23.3
2008-03-31 09:26:03 51°20.109 2°37.095 241.5 5 245 23.5
2008-03-31 09:26:07 51°20.106 2°37.087 241.2 5.1 245 23.4
2008-03-31 09:26:13 51°20.102 2°37.074 241.3 5.2 245 23.4
2008-03-31 09:26:18 51°20.099 2°37.064 241.4 5.3 246 23.2
2008-03-31 09:26:23 51°20.096 2°37.053 241.7 5.4 246 22.9
2008-03-31 09:26:28 51°20.093 2°37.042 242.5 5.5 248 22.3
2008-03-31 09:26:33 51°20.091 2°37.03 243.8 5.5 249 21.6
2008-03-31 09:26:38 51°20.088 2°37.019 246.2 5.3 252 20.6
2008-03-31 09:26:43 51°20.087 2°37.009 250.1 4.9 256 21.7
2008-03-31 09:26:48 51°20.086 2°36.999 253.8 4.7 259 21.7
2008-03-31 09:26:53 51°20.085 2°36.989 256.4 4.5 261 22
2008-03-31 09:26:58 51°20.084 2°36.98 258.5 4.3 263 23.2
2008-03-31 09:27:03 51°20.083 2°36.971 259.3 4.1 262 23.7
2008-03-31 09:27:07 51°20.083 2°36.964 259.4 4 263 24.6
2008-03-31 09:27:13 51°20.082 2°36.954 258.7 3.7 262 24.8
2008-03-31 09:27:18 51°20.081 2°36.946 257.6 3.5 264 25.3
2008-03-31 09:27:23 51°20.081 2°36.939 256.8 3.4 262 25.9
2008-03-31 09:27:28 51°20.08 2°36.932 256.3 3.3 263 26.3
2008-03-31 09:27:33 51°20.079 2°36.925 255.7 3.1 260 27
2008-03-31 09:27:38 51°20.079 2°36.918 254.9 3 263 26.8
2008-03-31 09:27:43 51°20.078 2°36.912 254 2.8 260 26.2
2008-03-31 09:27:47 51°20.078 2°36.908 253.1 2.7 261 25.6
2008-03-31 09:27:53 51°20.077 2°36.901 252.5 2.5 262 25.6
2008-03-31 09:27:58 51°20.077 2°36.896 252.2 2.3 263 25
2008-03-31 09:28:03 51°20.077 2°36.891 252.9 2.2 266 24.8
2008-03-31 09:28:08 51°20.077 2°36.887 254.7 2.1 266 24.3
2008-03-31 09:28:13 51°20.077 2°36.882 256.7 2 270 24.2
2008-03-31 09:28:18 51°20.077 2°36.878 258.8 1.8 274 23.8
2008-03-31 09:28:23 51°20.077 2°36.875 261.1 1.6 276 23.8